createdAt,value
2023-02-17T00:01:37.667Z,64.23
2023-02-17T00:04:07.378Z,64.15
2023-02-17T00:06:35.965Z,64.28
2023-02-17T00:09:04.448Z,63.99
2023-02-17T00:11:32.833Z,64.16
2023-02-17T00:14:01.312Z,64.42
2023-02-17T00:16:30.315Z,64.39
2023-02-17T00:19:00.429Z,64.84
2023-02-17T00:21:30.179Z,65.09
2023-02-17T00:23:58.955Z,65.65
2023-02-17T00:26:27.543Z,65.88
2023-02-17T00:28:56.348Z,66.13
2023-02-17T00:31:25.402Z,66.26
2023-02-17T00:33:55.946Z,66.80
2023-02-17T00:36:24.876Z,67.52
2023-02-17T00:38:54.551Z,67.80
2023-02-17T00:41:22.984Z,68.15
2023-02-17T00:43:51.425Z,68.70
2023-02-17T00:46:20.027Z,69.04
2023-02-17T00:48:48.762Z,69.26
2023-02-17T00:51:17.496Z,69.61
2023-02-17T00:53:46.327Z,69.87
2023-02-17T00:56:14.970Z,69.99
2023-02-17T00:58:43.771Z,70.47
2023-02-17T01:01:12.448Z,70.39
2023-02-17T01:03:42.547Z,70.71
2023-02-17T01:06:14.953Z,70.67
2023-02-17T01:08:43.333Z,70.93
2023-02-17T01:11:18.139Z,70.79
2023-02-17T01:13:46.760Z,71.36
2023-02-17T01:16:20.728Z,71.39
2023-02-17T01:18:50.165Z,71.70
2023-02-17T01:21:27.392Z,71.92
2023-02-17T01:23:57.204Z,72.06
2023-02-17T01:26:26.699Z,72.23
2023-02-17T01:28:55.265Z,72.13
2023-02-17T01:31:24.398Z,72.13
2023-02-17T01:34:00.120Z,72.12
2023-02-17T01:36:28.707Z,72.26
2023-02-17T01:39:00.668Z,72.47
2023-02-17T01:41:29.052Z,72.52
2023-02-17T01:44:14.341Z,72.63
2023-02-17T01:46:46.434Z,72.43
2023-02-17T01:49:19.788Z,72.39
2023-02-17T01:51:52.570Z,72.53
2023-02-17T01:54:27.514Z,72.74
2023-02-17T01:56:55.886Z,72.72
2023-02-17T01:59:24.265Z,72.86
2023-02-17T02:01:54.814Z,72.66
2023-02-17T02:04:25.642Z,72.59
2023-02-17T02:06:54.530Z,72.65
2023-02-17T02:09:41.377Z,72.78
2023-02-17T02:12:20.992Z,72.86
2023-02-17T02:14:49.473Z,72.82
2023-02-17T02:17:41.350Z,72.71
2023-02-17T02:20:24.952Z,72.75
2023-02-17T02:23:12.269Z,72.89
2023-02-17T02:25:40.547Z,72.86
2023-02-17T02:28:44.355Z,72.89
2023-02-17T02:31:34.304Z,72.98
2023-02-17T02:34:03.856Z,73.00
2023-02-17T02:36:38.995Z,73.46
2023-02-17T02:39:18.548Z,73.58
2023-02-17T02:41:49.109Z,73.43
2023-02-17T02:44:19.384Z,73.41
2023-02-17T02:47:01.802Z,73.43
2023-02-17T02:49:35.918Z,73.49
2023-02-17T02:52:07.675Z,73.55
2023-02-17T02:54:51.210Z,73.58
2023-02-17T02:57:30.553Z,73.53
2023-02-17T03:00:06.405Z,73.43
2023-02-17T03:03:08.681Z,73.54
2023-02-17T03:05:51.602Z,73.37
2023-02-17T03:08:26.909Z,72.89
2023-02-17T03:10:55.736Z,72.63
2023-02-17T03:13:24.221Z,72.31
2023-02-17T03:15:53.314Z,72.41
2023-02-17T03:18:21.818Z,72.37
2023-02-17T03:20:57.635Z,72.37
2023-02-17T03:23:26.861Z,72.19
2023-02-17T03:25:55.544Z,72.18
2023-02-17T03:28:25.465Z,72.41
2023-02-17T03:30:54.041Z,72.32
2023-02-17T03:33:22.523Z,72.29
2023-02-17T03:35:51.109Z,72.12
2023-02-17T03:38:19.489Z,72.14
2023-02-17T03:40:47.869Z,72.03
2023-02-17T03:43:17.864Z,71.83
2023-02-17T03:45:46.402Z,71.83
2023-02-17T03:48:19.163Z,71.65
2023-02-17T03:50:47.639Z,71.59
2023-02-17T03:53:16.529Z,71.82
2023-02-17T03:55:45.423Z,71.50
2023-02-17T03:58:13.802Z,71.42
2023-02-17T04:00:42.400Z,71.43
2023-02-17T04:03:13.121Z,71.38
2023-02-17T04:05:41.604Z,71.25
2023-02-17T04:08:09.984Z,71.30
2023-02-17T04:10:38.401Z,71.15
2023-02-17T04:13:06.844Z,70.88
2023-02-17T04:15:37.102Z,70.85
2023-02-17T04:18:05.451Z,70.93
2023-02-17T04:20:34.034Z,70.54
2023-02-17T04:23:02.768Z,70.36
2023-02-17T04:25:34.302Z,70.16
2023-02-17T04:28:04.192Z,70.08
2023-02-17T04:30:33.735Z,70.06
2023-02-17T04:33:02.805Z,69.95
2023-02-17T04:35:31.998Z,69.75
2023-02-17T04:38:00.690Z,69.69
2023-02-17T04:40:29.578Z,69.64
2023-02-17T04:43:01.952Z,69.62
2023-02-17T04:45:30.944Z,69.61
2023-02-17T04:48:00.363Z,69.63
2023-02-17T04:50:29.140Z,69.39
2023-02-17T04:52:57.518Z,69.52
2023-02-17T04:55:26.513Z,69.77
2023-02-17T04:57:54.895Z,69.80
2023-02-17T05:00:23.377Z,70.01
2023-02-17T05:02:51.763Z,70.42
2023-02-17T05:05:21.468Z,70.58
2023-02-17T05:07:49.848Z,70.90
2023-02-17T05:10:18.437Z,71.13
2023-02-17T05:12:46.711Z,71.47
2023-02-17T05:15:20.927Z,71.53
2023-02-17T05:17:50.228Z,71.44
2023-02-17T05:20:18.815Z,71.41
2023-02-17T05:22:47.297Z,71.33
2023-02-17T05:25:16.086Z,71.04
2023-02-17T05:27:45.797Z,71.18
2023-02-17T05:30:14.416Z,70.96
2023-02-17T05:32:42.867Z,70.83
2023-02-17T05:35:11.657Z,70.76
2023-02-17T05:37:41.161Z,70.67
2023-02-17T05:40:10.446Z,70.44
2023-02-17T05:42:38.755Z,70.39
2023-02-17T05:45:07.594Z,70.39
2023-02-17T05:47:37.351Z,70.19
2023-02-17T05:50:06.666Z,70.20
2023-02-17T05:52:35.033Z,69.94
2023-02-17T05:55:05.074Z,69.78
2023-02-17T05:57:33.633Z,69.73
2023-02-17T06:00:03.821Z,69.89
2023-02-17T06:02:40.479Z,70.18
2023-02-17T06:05:09.138Z,70.32
2023-02-17T06:07:39.343Z,70.36
2023-02-17T06:10:08.859Z,70.51
2023-02-17T06:12:37.438Z,70.56
2023-02-17T06:15:06.597Z,70.63
2023-02-17T06:17:40.962Z,70.64
2023-02-17T06:20:10.165Z,70.75
2023-02-17T06:22:38.650Z,70.96
2023-02-17T06:25:07.427Z,71.35
2023-02-17T06:30:22.264Z,71.83
2023-02-17T06:32:51.010Z,71.99
2023-02-17T06:35:19.381Z,72.01
2023-02-17T06:37:48.371Z,72.07
2023-02-17T06:40:18.204Z,72.03
2023-02-17T06:42:46.576Z,72.19
2023-02-17T06:45:16.070Z,72.32
2023-02-17T06:47:45.893Z,72.42
2023-02-17T06:50:16.320Z,72.57
2023-02-17T06:52:45.919Z,72.43
2023-02-17T06:55:14.304Z,72.28
2023-02-17T06:57:42.678Z,72.32
2023-02-17T07:00:11.775Z,72.43
2023-02-17T07:02:40.890Z,72.41
2023-02-17T07:05:09.468Z,72.71
2023-02-17T07:07:38.767Z,72.70
2023-02-17T07:10:08.236Z,73.00
2023-02-17T07:12:39.210Z,73.03
2023-02-17T07:15:12.049Z,72.96
2023-02-17T07:17:42.028Z,72.80
2023-02-17T07:20:10.950Z,72.90
2023-02-17T07:22:39.796Z,72.81
2023-02-17T07:25:08.610Z,72.57
2023-02-17T07:27:37.480Z,72.28
2023-02-17T07:30:06.811Z,72.34
2023-02-17T07:32:35.805Z,72.42
2023-02-17T07:35:04.877Z,72.42
2023-02-17T07:37:34.812Z,72.27
2023-02-17T07:40:04.509Z,72.35
2023-02-17T07:42:33.187Z,72.32
2023-02-17T07:45:01.666Z,72.27
2023-02-17T07:47:33.014Z,72.02
2023-02-17T07:50:01.397Z,71.92
2023-02-17T07:52:30.083Z,71.61
2023-02-17T07:54:58.670Z,71.45
2023-02-17T07:57:27.012Z,71.24
2023-02-17T07:59:55.330Z,71.28
2023-02-17T08:02:24.012Z,71.15
2023-02-17T08:04:53.836Z,70.88
2023-02-17T08:07:22.309Z,70.98
2023-02-17T08:10:10.655Z,71.06
2023-02-17T08:13:09.985Z,70.93
2023-02-17T08:15:38.444Z,70.89
2023-02-17T08:18:06.934Z,70.66
2023-02-17T08:20:35.641Z,70.50
2023-02-17T08:23:04.102Z,70.29
2023-02-17T08:25:34.126Z,69.86
2023-02-17T08:28:04.972Z,69.88
2023-02-17T08:30:36.065Z,69.94
2023-02-17T08:33:05.462Z,69.83
2023-02-17T08:35:34.195Z,69.85
2023-02-17T08:38:02.714Z,69.86
2023-02-17T08:40:31.494Z,69.83
2023-02-17T08:43:01.178Z,69.86
2023-02-17T08:45:31.108Z,69.67
2023-02-17T08:47:59.819Z,69.65
2023-02-17T08:50:28.158Z,69.50
2023-02-17T08:52:56.707Z,69.45
2023-02-17T08:55:25.342Z,69.27
2023-02-17T08:57:54.332Z,69.40
2023-02-17T09:00:26.907Z,69.52
2023-02-17T09:02:55.383Z,69.48
2023-02-17T09:05:24.926Z,69.40
2023-02-17T09:07:53.808Z,69.38
2023-02-17T09:10:22.671Z,69.80
2023-02-17T09:12:52.509Z,69.96
2023-02-17T09:15:21.081Z,70.02
2023-02-17T09:17:49.486Z,70.08
2023-02-17T09:20:25.070Z,70.12
2023-02-17T09:22:54.602Z,70.00
2023-02-17T09:25:23.373Z,70.09
2023-02-17T09:27:52.089Z,70.09
2023-02-17T09:30:20.852Z,70.07
2023-02-17T09:32:49.370Z,70.12
2023-02-17T09:35:21.324Z,70.13
2023-02-17T09:37:50.276Z,69.98
2023-02-17T09:40:19.932Z,70.16
2023-02-17T09:42:48.516Z,70.21
2023-02-17T09:45:21.607Z,70.11
2023-02-17T09:48:07.693Z,70.11
2023-02-17T09:50:44.387Z,70.16
2023-02-17T09:53:31.966Z,70.19
2023-02-17T09:56:02.438Z,70.03
2023-02-17T09:58:41.155Z,69.88
2023-02-17T10:01:12.527Z,69.89
2023-02-17T10:03:47.028Z,69.82
2023-02-17T10:06:45.821Z,69.68
2023-02-17T10:09:19.936Z,69.48
2023-02-17T10:11:53.920Z,69.38
2023-02-17T10:14:28.026Z,69.61
2023-02-17T10:17:34.576Z,69.63
2023-02-17T10:20:21.184Z,69.51
2023-02-17T10:22:56.586Z,69.65
2023-02-17T10:26:02.779Z,69.67
2023-02-17T10:28:31.542Z,69.52
2023-02-17T10:31:04.289Z,69.21
2023-02-17T10:33:45.025Z,68.98
2023-02-17T10:36:52.223Z,68.84
2023-02-17T10:39:58.863Z,68.81
2023-02-17T10:42:31.952Z,68.60
2023-02-17T10:45:25.559Z,68.61
2023-02-17T10:47:58.307Z,68.58
2023-02-17T10:50:27.000Z,68.31
2023-02-17T10:52:56.705Z,68.23
2023-02-17T10:55:36.658Z,68.47
2023-02-17T10:58:11.384Z,68.38
2023-02-17T11:00:42.342Z,67.97
2023-02-17T11:03:21.080Z,68.09
2023-02-17T11:06:18.617Z,67.89
2023-02-17T11:09:02.261Z,67.80
2023-02-17T11:11:32.681Z,68.36
2023-02-17T11:14:07.200Z,68.69
2023-02-17T11:16:37.356Z,68.58
2023-02-17T11:19:07.258Z,68.44
2023-02-17T11:21:37.680Z,68.10
2023-02-17T11:24:11.394Z,67.97
2023-02-17T11:26:39.853Z,68.13
2023-02-17T11:29:16.330Z,68.23
2023-02-17T11:32:01.515Z,68.14
2023-02-17T11:34:33.260Z,68.01
2023-02-17T11:37:13.760Z,68.02
2023-02-17T11:39:44.179Z,68.12
2023-02-17T11:42:25.228Z,67.88
2023-02-17T11:44:54.836Z,67.60
2023-02-17T11:47:39.305Z,67.38
2023-02-17T11:50:13.830Z,67.48
2023-02-17T11:53:19.797Z,67.22
2023-02-17T11:55:59.627Z,67.30
2023-02-17T11:58:31.185Z,66.95
2023-02-17T12:01:11.645Z,66.53
2023-02-17T12:03:41.150Z,66.37
2023-02-17T12:06:23.250Z,66.23
2023-02-17T12:09:12.424Z,65.97
2023-02-17T12:12:02.915Z,65.96
2023-02-17T12:14:50.341Z,65.84
2023-02-17T12:17:18.638Z,65.56
2023-02-17T12:20:09.641Z,65.74
2023-02-17T12:23:33.512Z,65.54
2023-02-17T12:26:17.252Z,65.64
2023-02-17T12:29:26.593Z,65.79
2023-02-17T12:32:06.915Z,65.68
2023-02-17T12:35:01.653Z,65.48
2023-02-17T12:37:35.362Z,65.52
2023-02-17T12:40:06.604Z,65.42
2023-02-17T12:42:43.990Z,65.36
2023-02-17T12:45:21.609Z,65.16
2023-02-17T12:48:22.943Z,65.01
2023-02-17T12:51:12.936Z,64.89
2023-02-17T12:54:17.668Z,64.85
2023-02-17T12:57:10.626Z,64.86
2023-02-17T12:59:40.969Z,65.00
2023-02-17T13:02:13.250Z,64.84
2023-02-17T13:04:43.948Z,65.01
2023-02-17T13:07:15.197Z,65.23
2023-02-17T13:09:45.728Z,65.05
2023-02-17T13:12:23.426Z,64.91
2023-02-17T13:14:55.120Z,64.92
2023-02-17T13:17:40.772Z,64.92
2023-02-17T13:20:12.232Z,64.79
2023-02-17T13:22:44.030Z,64.41
2023-02-17T13:25:34.524Z,64.02
2023-02-17T13:28:33.054Z,63.72
2023-02-17T13:31:13.305Z,63.80
2023-02-17T13:33:47.437Z,63.96
2023-02-17T13:36:20.838Z,64.07
2023-02-17T13:39:27.836Z,64.49
2023-02-17T13:42:00.398Z,64.87
2023-02-17T13:44:33.989Z,65.02
2023-02-17T13:47:29.618Z,64.92
2023-02-17T13:49:58.009Z,64.68
2023-02-17T13:52:28.122Z,64.64
2023-02-17T13:55:04.266Z,64.45
2023-02-17T13:57:36.455Z,64.00
2023-02-17T14:00:07.296Z,63.81
2023-02-17T14:02:51.755Z,63.66
2023-02-17T14:05:33.553Z,63.58
2023-02-17T14:08:17.497Z,63.59
2023-02-17T14:10:47.314Z,63.44
2023-02-17T14:13:20.819Z,63.42
2023-02-17T14:15:59.898Z,63.49
2023-02-17T14:18:36.930Z,63.58
2023-02-17T14:21:13.158Z,63.71
2023-02-17T14:23:49.265Z,63.94
2023-02-17T14:26:37.711Z,64.08
2023-02-17T14:29:08.458Z,64.32
2023-02-17T14:31:42.087Z,64.52
2023-02-17T14:34:24.670Z,64.83
2023-02-17T14:36:54.183Z,64.85
2023-02-17T14:39:22.661Z,64.73
2023-02-17T14:41:52.479Z,64.87
2023-02-17T14:44:21.681Z,64.89
2023-02-17T14:46:50.399Z,64.85
2023-02-17T14:49:19.467Z,65.05
2023-02-17T14:51:47.850Z,65.16
2023-02-17T14:54:17.221Z,65.26
2023-02-17T14:57:05.414Z,65.34
2023-02-17T14:59:35.222Z,65.35
2023-02-17T15:02:04.012Z,65.47
2023-02-17T15:04:32.831Z,65.47
2023-02-17T15:07:01.287Z,65.74
2023-02-17T15:09:31.193Z,66.01
2023-02-17T15:11:59.502Z,66.11
2023-02-17T15:14:27.867Z,66.57
2023-02-17T15:16:56.867Z,66.82
2023-02-17T15:19:25.653Z,67.09
2023-02-17T15:21:58.033Z,67.30
2023-02-17T15:24:46.177Z,67.38
2023-02-17T15:27:15.502Z,67.64
2023-02-17T15:29:44.473Z,67.77
2023-02-17T15:32:19.277Z,67.90
2023-02-17T15:34:47.686Z,68.12
2023-02-17T15:37:16.065Z,67.89
2023-02-17T15:39:44.550Z,67.97
2023-02-17T15:42:13.751Z,67.92
2023-02-17T15:44:48.935Z,67.85
2023-02-17T15:47:20.663Z,67.72
2023-02-17T15:49:50.259Z,67.89
2023-02-17T15:52:18.691Z,67.99
2023-02-17T15:54:48.567Z,68.15
2023-02-17T15:57:24.211Z,67.99
2023-02-17T15:59:55.357Z,67.99
2023-02-17T16:02:24.561Z,68.09
2023-02-17T16:04:54.379Z,68.34
2023-02-17T16:07:23.270Z,68.50
2023-02-17T16:09:51.750Z,68.68
2023-02-17T16:12:27.206Z,68.57
2023-02-17T16:14:57.645Z,68.79
2023-02-17T16:17:28.169Z,68.83
2023-02-17T16:19:56.645Z,68.71
2023-02-17T16:22:25.441Z,68.63
2023-02-17T16:25:14.817Z,68.62
2023-02-17T16:27:43.951Z,68.61
2023-02-17T16:30:20.005Z,68.66
2023-02-17T16:32:51.322Z,68.68
2023-02-17T16:35:25.000Z,68.83
2023-02-17T16:37:54.743Z,68.67
2023-02-17T16:40:26.076Z,68.75
2023-02-17T16:42:55.303Z,68.95
2023-02-17T16:45:26.080Z,69.23
2023-02-17T16:47:56.729Z,69.37
2023-02-17T16:50:27.919Z,69.35
2023-02-17T16:53:03.261Z,69.44
2023-02-17T16:55:35.146Z,69.51
2023-02-17T16:58:04.402Z,69.33
2023-02-17T17:00:33.423Z,69.28
2023-02-17T17:03:02.414Z,69.25
2023-02-17T17:05:31.717Z,69.46
2023-02-17T17:08:00.113Z,69.60
2023-02-17T17:10:34.006Z,69.53
2023-02-17T17:13:02.489Z,69.59
2023-02-17T17:15:35.273Z,69.92
2023-02-17T17:18:06.010Z,70.08
2023-02-17T17:20:40.802Z,70.37
2023-02-17T17:23:12.602Z,70.59
2023-02-17T17:25:42.944Z,70.94
2023-02-17T17:28:16.436Z,71.05
2023-02-17T17:30:45.133Z,71.04
2023-02-17T17:33:13.516Z,71.06
2023-02-17T17:35:43.632Z,71.13
2023-02-17T17:38:15.817Z,71.19
2023-02-17T17:40:53.676Z,71.30
2023-02-17T17:43:23.216Z,71.56
2023-02-17T17:45:52.046Z,71.67
2023-02-17T17:48:21.753Z,72.00
2023-02-17T17:50:50.610Z,72.23
2023-02-17T17:53:19.500Z,72.08
2023-02-17T17:55:48.394Z,72.12
2023-02-17T17:58:17.417Z,72.34
2023-02-17T18:00:50.696Z,72.17
2023-02-17T18:03:20.604Z,72.33
2023-02-17T18:05:48.988Z,72.35
2023-02-17T18:08:19.006Z,72.38
2023-02-17T18:10:47.593Z,72.55
2023-02-17T18:13:16.803Z,72.82
2023-02-17T18:15:45.461Z,72.82
2023-02-17T18:18:13.863Z,72.73
2023-02-17T18:20:42.796Z,72.79
2023-02-17T18:23:11.245Z,72.80
2023-02-17T18:25:40.443Z,72.88
2023-02-17T18:28:08.824Z,72.97
2023-02-17T18:30:37.774Z,72.92
2023-02-17T18:33:08.140Z,72.99
2023-02-17T18:35:37.054Z,72.90
2023-02-17T18:38:05.518Z,72.86
2023-02-17T18:40:40.636Z,72.91
2023-02-17T18:43:10.058Z,72.69
2023-02-17T18:48:02.003Z,72.55
2023-02-17T18:50:33.357Z,72.65
2023-02-17T18:53:05.205Z,72.73
2023-02-17T18:55:37.362Z,72.50
2023-02-17T18:58:05.772Z,72.59
2023-02-17T19:00:34.260Z,72.65
2023-02-17T19:03:06.323Z,72.72
2023-02-17T19:05:35.936Z,72.92
2023-02-17T19:08:08.919Z,72.95
2023-02-17T19:10:38.121Z,73.13
2023-02-17T19:13:07.014Z,73.18
2023-02-17T19:15:38.194Z,73.14
2023-02-17T19:18:06.769Z,73.45
2023-02-17T19:20:43.478Z,73.70
2023-02-17T19:23:12.516Z,73.93
2023-02-17T19:25:41.106Z,73.98
2023-02-17T19:28:11.225Z,73.94
2023-02-17T19:30:39.919Z,73.99
2023-02-17T19:33:10.752Z,74.08
2023-02-17T19:35:41.830Z,74.09
2023-02-17T19:38:10.590Z,74.14
2023-02-17T19:40:40.511Z,74.09
2023-02-17T19:43:08.763Z,74.08
2023-02-17T19:45:37.579Z,74.12
2023-02-17T19:48:06.062Z,74.02
2023-02-17T19:50:37.413Z,73.87
2023-02-17T19:53:05.904Z,73.81
2023-02-17T19:55:34.280Z,73.95
2023-02-17T19:58:03.892Z,73.98
2023-02-17T20:00:32.374Z,73.97
2023-02-17T20:03:00.903Z,74.12
2023-02-17T20:05:31.502Z,74.04
2023-02-17T20:08:01.000Z,73.93
2023-02-17T20:10:30.006Z,74.02
2023-02-17T20:12:58.582Z,74.57
2023-02-17T20:15:26.962Z,74.65
2023-02-17T20:17:55.549Z,74.53
2023-02-17T20:20:23.890Z,74.60
2023-02-17T20:22:52.210Z,74.54
2023-02-17T20:25:20.692Z,74.28
2023-02-17T20:27:49.098Z,74.54
2023-02-17T20:30:19.670Z,74.44
2023-02-17T20:32:48.404Z,74.61
2023-02-17T20:35:16.787Z,74.74
2023-02-17T20:37:45.161Z,74.72
2023-02-17T20:40:14.164Z,75.01
2023-02-17T20:42:46.430Z,74.88
2023-02-17T20:45:15.636Z,75.10
2023-02-17T20:47:44.014Z,74.94
2023-02-17T20:50:20.384Z,75.19
2023-02-17T20:52:49.073Z,75.37
2023-02-17T20:55:20.018Z,75.56
2023-02-17T20:57:48.593Z,75.33
2023-02-17T21:00:20.459Z,75.63
2023-02-17T21:02:52.560Z,75.72
2023-02-17T21:05:21.836Z,75.80
2023-02-17T21:07:50.341Z,75.76
2023-02-17T21:10:24.279Z,75.73
2023-02-17T21:12:52.920Z,75.64
2023-02-17T21:15:21.506Z,75.76
2023-02-17T21:17:49.962Z,75.71
2023-02-17T21:20:20.142Z,75.70
2023-02-17T21:22:48.700Z,75.96
2023-02-17T21:25:17.806Z,76.04
2023-02-17T21:27:48.632Z,75.96
2023-02-17T21:30:17.370Z,75.76
2023-02-17T21:32:45.800Z,75.73
2023-02-17T21:35:14.287Z,76.03
2023-02-17T21:37:43.584Z,76.09
2023-02-17T21:40:12.685Z,76.02
2023-02-17T21:42:59.495Z,75.70
2023-02-17T21:45:28.337Z,75.93
2023-02-17T21:47:56.875Z,75.71
2023-02-17T21:50:25.560Z,75.77
2023-02-17T21:52:54.048Z,75.81
2023-02-17T21:55:22.526Z,76.09
2023-02-17T21:57:51.010Z,76.22
2023-02-17T22:00:20.516Z,76.26
2023-02-17T22:02:49.002Z,76.34
2023-02-17T22:05:18.609Z,76.31
2023-02-17T22:07:51.394Z,76.28
2023-02-17T22:10:19.776Z,76.32
2023-02-17T22:12:48.361Z,76.48
2023-02-17T22:15:16.742Z,76.36
2023-02-17T22:17:50.758Z,76.49
2023-02-17T22:20:19.650Z,76.36
2023-02-17T22:22:48.031Z,76.55
2023-02-17T22:25:16.514Z,76.53
2023-02-17T22:27:44.827Z,76.61
2023-02-17T22:30:13.594Z,76.74
2023-02-17T22:32:43.526Z,76.69
2023-02-17T22:35:12.194Z,76.61
2023-02-17T22:37:41.699Z,76.58
2023-02-17T22:40:12.027Z,76.84
2023-02-17T22:42:41.841Z,76.80
2023-02-17T22:45:12.169Z,77.04
2023-02-17T22:47:42.193Z,77.13
2023-02-17T22:50:10.838Z,77.07
2023-02-17T22:52:39.260Z,76.97
2023-02-17T22:55:08.156Z,77.11
2023-02-17T22:57:36.535Z,77.20
2023-02-17T23:00:06.789Z,77.46
2023-02-17T23:02:37.093Z,77.80
2023-02-17T23:05:06.117Z,78.02
2023-02-17T23:07:40.518Z,78.13
2023-02-17T23:10:09.867Z,78.52
2023-02-17T23:12:38.196Z,78.60
2023-02-17T23:15:10.775Z,78.72
2023-02-17T23:17:56.771Z,79.00
2023-02-17T23:20:26.495Z,79.11
2023-02-17T23:22:55.175Z,79.30
2023-02-17T23:25:24.069Z,79.41
2023-02-17T23:27:53.884Z,79.57
2023-02-17T23:30:23.456Z,79.75
2023-02-17T23:32:52.289Z,79.86
2023-02-17T23:35:20.667Z,80.21
2023-02-17T23:37:53.248Z,80.48
2023-02-17T23:40:21.632Z,80.83
2023-02-17T23:42:50.527Z,81.32
2023-02-17T23:45:19.115Z,81.49
2023-02-17T23:47:49.645Z,81.71
2023-02-17T23:50:19.085Z,82.03
2023-02-17T23:52:48.661Z,81.97
2023-02-17T23:55:17.147Z,81.78
2023-02-17T23:57:45.523Z,81.76
